Time;durP1;ratioP1;P1;durP2;ratioP2;P2;SDS_P1;SDS_P2;PMS_P1;PMS_P2;Temp;Humidity;BMP_temperature;BMP_pressure;BME280_temperature;BME280_humidity;BME280_pressure;Samples;Min_cycle;Max_cycle;Signal;HPM_P1;HPM_P2
2021/04/06 00:00:58;;;;;;;4.10;0.88;;;;;;;2.79;45.40;98181.94;5104588;28;20027;-66
2021/04/06 00:03:27;;;;;;;3.95;1.00;;;;;;;2.77;45.48;98181.97;5104952;28;20054;-65
2021/04/06 00:05:58;;;;;;;4.65;1.10;;;;;;;2.76;45.57;98187.13;5104618;28;20034;-64
2021/04/06 00:08:26;;;;;;;8.52;1.23;;;;;;;2.76;45.47;98185.41;5104577;28;20035;-65
2021/04/06 00:10:54;;;;;;;5.13;1.10;;;;;;;2.73;45.48;98185.44;5104753;28;20076;-66
2021/04/06 00:13:22;;;;;;;3.53;1.10;;;;;;;2.73;45.43;98180.31;5086256;28;20111;-66
2021/04/06 00:15:48;;;;;;;7.82;1.45;;;;;;;2.70;45.84;98181.19;5104419;28;20035;-66
2021/04/06 00:18:17;;;;;;;3.88;1.50;;;;;;;2.68;45.99;98188.06;5104110;28;20016;-66
2021/04/06 00:20:45;;;;;;;6.18;1.40;;;;;;;2.62;46.00;98193.25;5104424;28;20055;-66
2021/04/06 00:23:13;;;;;;;5.07;1.30;;;;;;;2.64;46.00;98196.63;5104496;28;20112;-66
2021/04/06 00:25:42;;;;;;;6.57;0.98;;;;;;;2.61;46.00;98194.13;5104159;28;20034;-66
2021/04/06 00:28:12;;;;;;;4.00;0.93;;;;;;;2.60;46.02;98195.81;5103917;28;20067;-66
2021/04/06 00:30:41;;;;;;;8.38;1.38;;;;;;;2.57;46.27;98202.72;5104646;28;20026;-66
2021/04/06 00:33:21;;;;;;;6.85;0.90;;;;;;;2.54;45.88;98184.81;5104310;28;20020;-66
2021/04/06 00:35:56;;;;;;;2.22;1.05;;;;;;;2.54;45.86;98193.34;5104289;28;20020;-65
2021/04/06 00:38:23;;;;;;;2.75;0.85;;;;;;;2.52;45.62;98191.66;5104257;28;20019;-62
2021/04/06 00:40:52;;;;;;;4.00;0.95;;;;;;;2.51;45.60;98189.97;5103749;28;20024;-66
2021/04/06 00:43:19;;;;;;;4.47;1.00;;;;;;;2.48;45.73;98183.16;5103947;28;20052;-66
2021/04/06 00:45:47;;;;;;;2.58;0.90;;;;;;;2.47;45.83;98178.91;5104263;28;20066;-66
2021/04/06 00:48:21;;;;;;;3.97;0.80;;;;;;;2.44;45.90;98190.06;5104176;28;20024;-66
2021/04/06 00:51:06;;;;;;;4.20;0.90;;;;;;;2.40;45.97;98203.75;5103998;28;20020;-66
2021/04/06 00:53:53;;;;;;;1.40;0.90;;;;;;;2.40;46.03;98196.06;5103639;28;20077;-65
2021/04/06 00:56:21;;;;;;;4.47;1.45;;;;;;;2.41;45.80;98196.91;5103533;28;20020;-66
2021/04/06 00:58:51;;;;;;;3.28;1.00;;;;;;;2.35;46.09;98200.38;5104111;28;20094;-65
2021/04/06 01:01:33;;;;;;;1.33;0.85;;;;;;;2.36;45.97;98194.41;5103857;28;20027;-65
2021/04/06 01:04:01;;;;;;;3.83;1.25;;;;;;;2.34;46.10;98196.97;5103675;28;20031;-65
2021/04/06 01:06:26;;;;;;;1.30;0.80;;;;;;;2.28;46.42;98191.06;5103588;28;20062;-65
2021/04/06 01:08:55;;;;;;;4.72;0.98;;;;;;;2.30;46.27;98197.03;5103425;28;20024;-66
2021/04/06 01:11:22;;;;;;;4.60;1.30;;;;;;;2.30;46.27;98197.84;5103769;28;20023;-65
2021/04/06 01:13:49;;;;;;;2.60;1.00;;;;;;;2.30;46.32;98192.75;5103922;28;20047;-65
2021/04/06 01:16:17;;;;;;;1.80;1.00;;;;;;;2.25;46.57;98186.84;5103716;28;20023;-66
2021/04/06 01:18:43;;;;;;;3.28;1.10;;;;;;;2.26;46.68;98185.97;5103756;28;20024;-65
2021/04/06 01:21:12;;;;;;;2.65;0.98;;;;;;;2.19;46.80;98181.78;5103586;28;20075;-66
2021/04/06 01:23:39;;;;;;;3.58;1.35;;;;;;;2.20;46.82;98183.47;5103513;28;20027;-65
2021/04/06 01:26:10;;;;;;;1.10;0.70;;;;;;;2.21;46.81;98191.13;5103583;28;20031;-65
2021/04/06 01:28:35;;;;;;;3.77;1.20;;;;;;;2.23;46.93;98191.13;5103381;28;20294;-64
2021/04/06 01:31:03;;;;;;;5.03;0.90;;;;;;;2.22;46.76;98194.56;5103635;28;20133;-64
2021/04/06 01:33:31;;;;;;;3.88;0.80;;;;;;;2.20;46.86;98181.78;5085367;28;20032;-65
2021/04/06 01:36:09;;;;;;;4.40;1.08;;;;;;;2.22;46.90;98194.56;5103752;28;20316;-64
2021/04/06 01:38:40;;;;;;;6.65;1.05;;;;;;;2.19;47.31;98192.03;5103260;28;20039;-64
2021/04/06 01:41:06;;;;;;;8.05;1.40;;;;;;;2.18;47.11;98188.59;5103448;28;20028;-65
2021/04/06 01:43:33;;;;;;;3.42;0.82;;;;;;;2.14;47.48;98189.47;5103547;28;20063;-66
2021/04/06 01:46:13;;;;;;;3.80;1.10;;;;;;;2.15;47.69;98188.63;5103484;28;20024;-65
2021/04/06 01:48:39;;;;;;;2.50;1.02;;;;;;;2.11;47.74;98192.06;5103443;28;20405;-65
2021/04/06 01:51:05;;;;;;;9.30;1.30;;;;;;;2.10;47.81;98195.50;5103358;28;20072;-65
2021/04/06 01:53:30;;;;;;;5.15;1.20;;;;;;;2.10;47.95;98200.63;5103155;28;20034;-64
2021/04/06 01:56:01;;;;;;;5.25;1.02;;;;;;;2.07;47.95;98201.53;5103189;28;20046;-64
2021/04/06 01:58:28;;;;;;;3.75;0.80;;;;;;;2.07;47.79;98200.66;5103402;28;20024;-65
2021/04/06 02:03:35;;;;;;;4.80;1.13;;;;;;;1.99;47.95;98203.28;5086530;28;20032;-65
2021/04/06 02:06:01;;;;;;;4.93;1.40;;;;;;;1.97;48.20;98202.44;5103459;28;20028;-65
2021/04/06 02:08:30;;;;;;;7.25;2.10;;;;;;;1.94;48.48;98199.91;5103082;28;20026;-65
2021/04/06 02:10:56;;;;;;;6.47;1.13;;;;;;;1.94;48.39;98202.47;5103115;28;20016;-66
2021/04/06 02:13:21;;;;;;;6.03;1.40;;;;;;;1.93;48.23;98201.63;5103143;28;20061;-65
2021/04/06 02:16:01;;;;;;;3.88;1.17;;;;;;;1.90;48.35;98195.69;5103826;28;20041;-65
2021/04/06 02:18:29;;;;;;;6.13;1.20;;;;;;;1.86;48.66;98192.31;5106916;28;20035;-66
2021/04/06 02:20:56;;;;;;;1.27;0.60;;;;;;;1.83;48.45;98188.09;5106850;28;20031;-66
2021/04/06 02:23:23;;;;;;;5.93;1.55;;;;;;;1.84;48.39;98184.66;5106707;28;20024;-65
2021/04/06 02:25:52;;;;;;;4.40;0.80;;;;;;;1.83;48.48;98177.84;5106213;28;20020;-65
2021/04/06 02:28:23;;;;;;;6.00;1.27;;;;;;;1.82;48.45;98183.81;5106548;28;20407;-67
2021/04/06 02:30:53;;;;;;;6.40;1.10;;;;;;;1.81;48.51;98189.81;5106633;28;20031;-66
2021/04/06 02:33:23;;;;;;;1.92;0.90;;;;;;;1.85;48.35;98193.19;5106566;28;20024;-65
2021/04/06 02:36:02;;;;;;;6.10;1.45;;;;;;;1.85;48.52;98191.47;5088151;28;20020;-65
2021/04/06 02:38:29;;;;;;;6.80;1.13;;;;;;;1.89;48.46;98196.53;5106445;28;20089;-66
2021/04/06 02:41:06;;;;;;;1.80;0.90;;;;;;;1.87;48.58;98194.00;5106195;28;20036;-66
2021/04/06 02:43:44;;;;;;;3.35;1.10;;;;;;;1.83;48.27;98200.03;5106457;28;20033;-66
2021/04/06 02:46:18;;;;;;;5.65;1.20;;;;;;;1.88;47.97;98211.06;5106242;28;20040;-65
2021/04/06 02:48:44;;;;;;;4.95;1.20;;;;;;;1.87;48.21;98209.34;5106087;28;20039;-64
2021/04/06 02:51:10;;;;;;;7.10;1.10;;;;;;;1.85;48.11;98211.09;5106198;28;20053;-65
2021/04/06 02:53:38;;;;;;;4.82;0.90;;;;;;;1.88;48.15;98205.94;5106198;28;20020;-65
2021/04/06 02:56:04;;;;;;;2.03;0.75;;;;;;;1.84;48.26;98205.13;5105952;28;20028;-66
2021/04/06 02:58:37;;;;;;;4.40;1.20;;;;;;;1.88;48.15;98195.72;5106077;28;20023;-66
2021/04/06 03:01:13;;;;;;;5.28;2.42;;;;;;;1.93;47.81;98209.28;5105701;28;20024;-64
2021/04/06 03:03:39;;;;;;;4.15;1.05;;;;;;;1.95;47.66;98212.69;5106083;28;20020;-65
2021/04/06 03:06:07;;;;;;;7.00;1.58;;;;;;;1.97;47.60;98208.44;5105814;28;20059;-66
2021/04/06 03:08:35;;;;;;;3.90;1.10;;;;;;;1.98;47.61;98216.97;5105834;28;20023;-65
2021/04/06 03:11:01;;;;;;;6.13;1.25;;;;;;;2.02;47.61;98212.63;5105662;28;20016;-64
2021/04/06 03:13:27;;;;;;;6.68;1.20;;;;;;;2.06;47.35;98225.41;5105655;28;20016;-65
2021/04/06 03:15:55;;;;;;;3.42;1.13;;;;;;;2.09;47.62;98227.09;5105714;28;20051;-65
2021/04/06 03:18:39;;;;;;;3.83;1.20;;;;;;;2.09;47.59;98216.88;5105729;28;20028;-65
2021/04/06 03:21:09;;;;;;;4.25;1.15;;;;;;;2.07;47.85;98211.75;5105719;28;20035;-65
2021/04/06 03:23:35;;;;;;;2.65;0.75;;;;;;;2.07;47.97;98219.44;5105567;28;20016;-64
2021/04/06 03:26:02;;;;;;;4.20;1.00;;;;;;;2.04;48.10;98213.50;5105293;28;20035;-65
2021/04/06 03:28:35;;;;;;;5.55;1.05;;;;;;;2.07;48.06;98222.00;5104660;28;20122;-65
2021/04/06 03:31:13;;;;;;;6.18;1.15;;;;;;;2.05;48.30;98225.41;5105501;28;20027;-66
2021/04/06 03:33:40;;;;;;;4.28;1.00;;;;;;;2.03;48.44;98222.03;5105498;28;20023;-65
2021/04/06 03:36:06;;;;;;;5.13;1.88;;;;;;;2.02;48.51;98228.00;5105255;28;20081;-65
2021/04/06 03:38:32;;;;;;;5.07;1.05;;;;;;;2.01;48.58;98223.75;5105271;28;20020;-66
2021/04/06 03:40:57;;;;;;;2.63;0.90;;;;;;;2.03;48.46;98222.03;5104965;28;20472;-66
2021/04/06 03:43:23;;;;;;;4.60;0.85;;;;;;;2.03;48.55;98214.34;5105115;28;20028;-65
2021/04/06 03:45:55;;;;;;;3.97;0.93;;;;;;;1.99;48.88;98216.09;5086872;28;20089;-66
2021/04/06 03:48:23;;;;;;;4.30;1.15;;;;;;;1.92;49.10;98214.44;5105123;28;20151;-66
2021/04/06 03:50:48;;;;;;;3.42;0.70;;;;;;;1.95;48.95;98210.13;5105064;28;20020;-66
2021/04/06 03:53:14;;;;;;;6.63;1.15;;;;;;;1.94;49.09;98205.03;5105089;28;20039;-66
2021/04/06 03:55:40;;;;;;;3.20;0.88;;;;;;;1.94;49.01;98211.00;5104457;28;20514;-65
2021/04/06 03:58:11;;;;;;;4.80;1.15;;;;;;;1.90;48.95;98209.31;5104857;28;20061;-66
2021/04/06 04:00:36;;;;;;;2.28;1.00;;;;;;;1.95;48.65;98217.81;5104810;28;20425;-66
2021/04/06 04:03:02;;;;;;;3.78;1.08;;;;;;;1.94;48.75;98216.13;5104724;28;20162;-66
2021/04/06 04:05:28;;;;;;;5.90;1.02;;;;;;;1.92;48.75;98217.00;5104698;28;20024;-64
2021/04/06 04:07:53;;;;;;;14.15;2.15;;;;;;;1.89;49.03;98220.44;5104872;28;20365;-66
2021/04/06 04:10:18;;;;;;;4.68;1.15;;;;;;;1.89;49.17;98217.88;5104458;28;20028;-67
2021/04/06 04:12:44;;;;;;;8.93;1.52;;;;;;;1.89;49.23;98217.88;5086447;28;20107;-67
2021/04/06 04:15:10;;;;;;;2.67;0.80;;;;;;;1.86;49.60;98207.66;5104641;28;20032;-66
2021/04/06 04:17:35;;;;;;;4.72;1.10;;;;;;;1.89;49.85;98207.63;5104353;28;20097;-66
2021/04/06 04:20:07;;;;;;;6.03;1.13;;;;;;;1.94;49.72;98210.16;5104641;28;20050;-65
2021/04/06 04:22:32;;;;;;;3.50;1.10;;;;;;;1.97;49.76;98213.53;5104397;28;20024;-65
2021/04/06 04:24:57;;;;;;;3.78;1.00;;;;;;;2.00;49.56;98209.28;5104003;28;20077;-64
2021/04/06 04:27:23;;;;;;;5.68;1.48;;;;;;;1.95;49.94;98212.69;5104055;28;20452;-69
2021/04/06 04:29:48;;;;;;;8.40;1.58;;;;;;;1.94;49.80;98208.47;5104142;28;20024;-68
2021/04/06 04:32:13;;;;;;;3.45;1.15;;;;;;;1.95;49.56;98214.44;5085957;28;20352;-65
2021/04/06 04:34:40;;;;;;;8.95;1.50;;;;;;;1.94;50.10;98213.56;5104092;28;20023;-65
2021/04/06 04:37:06;;;;;;;4.50;1.10;;;;;;;2.00;50.16;98214.38;5104007;28;20016;-66
2021/04/06 04:39:31;;;;;;;6.55;1.45;;;;;;;2.12;50.18;98221.09;5102739;28;20555;-65
2021/04/06 04:41:56;;;;;;;3.45;1.30;;;;;;;2.16;50.01;98226.16;5104211;28;20020;-65
2021/04/06 04:44:22;;;;;;;8.48;1.70;;;;;;;2.19;50.13;98215.91;5104096;28;20097;-65
2021/04/06 04:46:48;;;;;;;11.27;3.15;;;;;;;2.33;50.14;98222.59;5104123;28;20038;-65
2021/04/06 04:49:14;;;;;;;2.60;0.98;;;;;;;2.64;50.11;98227.38;5104214;28;20441;-65
2021/04/06 04:51:39;;;;;;;19.92;3.00;;;;;;;3.07;49.86;98226.00;5104387;28;20067;-66
2021/04/06 04:54:05;;;;;;;4.95;1.35;;;;;;;3.56;49.09;98220.22;5103763;28;20024;-64
2021/04/06 04:56:30;;;;;;;2.97;1.00;;;;;;;3.94;47.94;98211.06;5104057;28;20017;-66
2021/04/06 04:58:56;;;;;;;4.82;1.10;;;;;;;4.29;47.32;98218.16;5103937;28;20140;-65
2021/04/06 05:01:21;;;;;;;5.90;1.52;;;;;;;4.41;46.70;98220.50;5103849;28;20031;-65
2021/04/06 05:03:46;;;;;;;9.38;1.60;;;;;;;4.29;46.22;98211.31;5103953;28;20016;-67
2021/04/06 05:06:12;;;;;;;7.65;1.63;;;;;;;4.05;46.33;98203.19;5103795;28;20023;-65
2021/04/06 05:08:38;;;;;;;5.45;1.23;;;;;;;3.87;46.57;98209.47;5103858;28;20052;-65
2021/04/06 05:11:03;;;;;;;7.00;1.42;;;;;;;3.72;46.63;98215.72;5103581;28;20061;-65
2021/04/06 05:13:28;;;;;;;4.03;1.52;;;;;;;3.46;46.66;98222.94;5103712;28;20016;-65
2021/04/06 05:15:54;;;;;;;4.50;1.35;;;;;;;3.35;46.89;98220.50;5103612;28;20024;-64
2021/04/06 05:18:20;;;;;;;9.57;1.30;;;;;;;3.26;47.31;98224.94;5103743;28;20043;-64
2021/04/06 05:20:45;;;;;;;4.47;1.00;;;;;;;3.19;47.40;98219.88;5103731;28;20055;-64
2021/04/06 05:23:10;;;;;;;4.97;1.05;;;;;;;3.42;47.94;98228.97;5103674;28;20107;-65
2021/04/06 05:25:36;;;;;;;8.05;1.02;;;;;;;4.07;47.41;98228.81;5103236;28;20035;-64
2021/04/06 05:28:01;;;;;;;4.78;0.90;;;;;;;4.86;47.43;98228.25;5103378;28;20052;-64
2021/04/06 05:30:27;;;;;;;6.22;0.98;;;;;;;5.72;44.69;98216.91;5103730;28;20047;-64
2021/04/06 05:32:52;;;;;;;8.38;1.35;;;;;;;6.63;44.58;98225.00;5103377;28;20031;-64
2021/04/06 05:35:17;;;;;;;5.65;0.82;;;;;;;7.31;41.90;98222.19;5103702;28;20387;-65
2021/04/06 05:37:43;;;;;;;6.43;1.55;;;;;;;8.01;40.13;98224.31;5103484;28;20028;-66
2021/04/06 05:40:09;;;;;;;4.97;1.15;;;;;;;8.13;39.22;98223.91;5084966;28;20052;-64
2021/04/06 05:42:36;;;;;;;6.50;1.60;;;;;;;7.79;38.78;98236.22;5103466;28;20031;-66
2021/04/06 05:45:04;;;;;;;5.85;1.40;;;;;;;7.24;38.76;98239.59;5103539;28;20020;-65
2021/04/06 05:47:51;;;;;;;4.95;1.45;;;;;;;6.78;39.64;98250.34;5103384;28;20024;-66
2021/04/06 05:50:17;;;;;;;4.32;1.10;;;;;;;6.48;40.15;98250.28;5103595;28;20107;-65
2021/04/06 05:52:44;;;;;;;4.57;1.40;;;;;;;6.22;40.84;98243.22;5107396;28;20027;-66
2021/04/06 05:55:09;;;;;;;4.53;1.15;;;;;;;6.01;40.68;98250.56;5107071;28;20032;-66
2021/04/06 05:57:35;;;;;;;6.38;1.50;;;;;;;5.76;41.33;98248.59;5088895;28;20030;-64
2021/04/06 06:00:01;;;;;;;5.55;1.45;;;;;;;5.62;41.47;98244.63;5107355;28;20058;-65
2021/04/06 06:02:27;;;;;;;6.13;1.10;;;;;;;5.76;41.51;98252.03;5106942;28;20085;-64
2021/04/06 06:04:55;;;;;;;11.23;1.90;;;;;;;6.27;41.61;98241.38;5107064;28;20051;-65
2021/04/06 06:07:21;;;;;;;3.58;1.00;;;;;;;6.85;40.78;98252.75;5107073;28;20076;-64
2021/04/06 06:09:46;;;;;;;2.58;1.13;;;;;;;7.52;39.83;98253.41;5106507;28;20027;-65
2021/04/06 06:12:18;;;;;;;5.20;0.93;;;;;;;8.40;38.39;98247.13;5107052;28;20016;-65
2021/04/06 06:14:51;;;;;;;3.88;1.05;;;;;;;8.92;37.93;98243.63;5107236;28;20027;-65
2021/04/06 06:17:27;;;;;;;3.97;1.00;;;;;;;9.45;36.37;98247.75;5106631;28;20016;-64
2021/04/06 06:19:57;;;;;;;2.55;0.85;;;;;;;9.86;36.11;98245.25;5106989;28;20051;-65
2021/04/06 06:22:31;;;;;;;9.95;1.27;;;;;;;10.03;34.04;98247.16;5106724;28;20020;-65
2021/04/06 06:25:11;;;;;;;9.20;1.10;;;;;;;10.29;33.30;98242.66;5106369;28;20016;-65
2021/04/06 06:27:44;;;;;;;7.82;1.58;;;;;;;10.53;33.92;98244.28;5106156;28;20077;-63
2021/04/06 06:33:20;;;;;;;3.90;1.00;;;;;;;11.96;32.78;98249.94;5106832;28;20024;-64
2021/04/06 06:35:54;;;;;;;5.72;0.90;;;;;;;12.52;31.97;98252.38;5088455;28;20036;-65
2021/04/06 06:38:31;;;;;;;4.80;0.90;;;;;;;12.67;29.73;98246.50;5106599;28;20094;-65
2021/04/06 06:41:11;;;;;;;3.88;1.20;;;;;;;12.26;28.93;98231.16;5106080;28;20040;-64
2021/04/06 06:43:38;;;;;;;4.63;1.27;;;;;;;11.95;29.66;98239.63;5106408;28;20094;-64
2021/04/06 06:46:03;;;;;;;2.25;0.90;;;;;;;12.11;29.81;98232.75;5087796;28;20039;-64
2021/04/06 06:48:32;;;;;;;7.78;1.00;;;;;;;12.30;28.66;98239.63;5106375;28;20023;-65
2021/04/06 06:51:03;;;;;;;2.60;0.95;;;;;;;12.50;28.58;98253.41;5106171;28;20039;-65
2021/04/06 06:53:36;;;;;;;4.30;1.10;;;;;;;12.46;27.88;98242.28;5106430;28;20030;-64
2021/04/06 06:56:03;;;;;;;7.25;1.23;;;;;;;12.39;27.61;98228.78;5105808;28;20024;-64
2021/04/06 06:58:31;;;;;;;5.35;1.30;;;;;;;12.79;28.19;98239.78;5106055;28;20045;-64
2021/04/06 07:00:57;;;;;;;14.05;1.40;;;;;;;12.88;26.41;98236.69;5106041;28;20484;-65
2021/04/06 07:03:22;;;;;;;2.03;0.73;;;;;;;12.76;27.11;98231.22;5104641;28;20034;-65
2021/04/06 07:05:47;;;;;;;4.72;0.90;;;;;;;12.90;27.51;98229.66;5105241;28;20028;-65
2021/04/06 07:08:13;;;;;;;4.63;0.85;;;;;;;13.23;27.60;98235.72;5105496;28;20024;-64
2021/04/06 07:10:40;;;;;;;10.23;1.25;;;;;;;13.67;26.95;98242.06;5105426;28;20046;-64
2021/04/06 07:13:18;;;;;;;6.10;1.17;;;;;;;13.99;26.36;98222.91;5105783;28;20047;-65
2021/04/06 07:15:46;;;;;;;5.78;1.20;;;;;;;14.56;26.35;98229.16;5105934;28;20073;-64
2021/04/06 07:18:17;;;;;;;5.63;1.00;;;;;;;14.95;24.36;98231.22;5106018;28;20020;-63
2021/04/06 07:20:50;;;;;;;2.58;0.90;;;;;;;14.59;24.33;98244.63;5105696;28;20537;-64
2021/04/06 07:23:42;;;;;;;3.28;1.13;;;;;;;14.38;24.35;98239.75;5105864;28;20034;-64
2021/04/06 07:26:09;;;;;;;;;;;;;;;14.25;23.99;98241.38;5105242;28;20081;-63
2021/04/06 07:28:36;;;;;;;3.20;1.00;;;;;;;14.19;24.76;98241.75;5105383;28;19923;-64
2021/04/06 07:31:03;;;;;;;3.38;0.90;;;;;;;14.43;24.79;98247.31;5105328;28;20058;-64
2021/04/06 07:33:31;;;;;;;2.30;0.70;;;;;;;14.89;24.11;98234.22;5105529;28;20489;-64
2021/04/06 07:35:59;;;;;;;4.05;1.13;;;;;;;14.95;23.61;98239.88;5105495;28;20066;-65
2021/04/06 07:38:24;;;;;;;4.75;1.30;;;;;;;14.88;23.38;98249.03;5105317;28;20217;-64
2021/04/06 07:40:52;;;;;;;3.15;0.90;;;;;;;14.76;23.73;98240.13;5104984;28;20396;-64
2021/04/06 07:43:20;;;;;;;6.43;1.40;;;;;;;14.87;23.96;98248.19;5105270;28;20028;-65
2021/04/06 07:45:45;;;;;;;3.03;0.98;;;;;;;15.11;23.64;98242.38;5105052;28;20024;-64
2021/04/06 07:48:12;;;;;;;3.53;1.08;;;;;;;15.09;23.39;98236.44;5105201;28;20031;-65
2021/04/06 07:50:44;;;;;;;4.80;1.08;;;;;;;15.09;24.03;98241.66;5105050;28;20036;-64
2021/04/06 07:53:26;;;;;;;4.88;1.00;;;;;;;15.01;23.50;98243.06;5104919;28;20062;-64
2021/04/06 07:55:52;;;;;;;5.13;1.05;;;;;;;15.10;23.79;98240.72;5104410;28;20111;-64
2021/04/06 07:58:55;;;;;;;5.85;1.50;;;;;;;14.97;23.76;98245.00;5105068;28;20085;-65
2021/04/06 08:01:28;;;;;;;2.95;0.82;;;;;;;15.04;23.94;98251.56;5104909;28;20028;-64
2021/04/06 08:03:53;;;;;;;5.47;1.00;;;;;;;15.05;24.16;98242.78;5104646;28;20487;-64
2021/04/06 08:06:20;;;;;;;5.35;1.20;;;;;;;14.82;23.87;98252.88;5104852;28;20027;-65
2021/04/06 08:08:45;;;;;;;3.85;1.00;;;;;;;14.74;24.41;98252.47;5104818;28;20024;-65
2021/04/06 08:11:10;;;;;;;10.20;1.30;;;;;;;14.97;24.20;98248.47;5104372;28;20115;-65
2021/04/06 08:13:37;;;;;;;8.40;1.42;;;;;;;15.18;23.92;98257.69;5104500;28;20031;-65
2021/04/06 08:16:12;;;;;;;6.00;1.08;;;;;;;15.54;23.97;98250.25;5104355;28;20050;-65
2021/04/06 08:18:53;;;;;;;5.72;1.50;;;;;;;15.50;23.44;98249.59;5104692;28;20425;-65
2021/04/06 08:21:23;;;;;;;5.15;0.93;;;;;;;15.51;23.44;98242.59;5104505;28;20029;-65
2021/04/06 08:23:49;;;;;;;6.78;1.23;;;;;;;15.25;23.31;98266.84;5104697;28;20048;-65
2021/04/06 08:26:31;;;;;;;8.20;2.08;;;;;;;15.21;23.86;98262.72;5104120;28;20109;-65
2021/04/06 08:29:22;;;;;;;4.65;1.05;;;;;;;15.73;24.06;98265.59;5104307;28;20157;-65
2021/04/06 08:32:14;;;;;;;5.00;0.95;;;;;;;16.11;22.54;98264.06;5104317;28;20229;-63
2021/04/06 08:34:51;;;;;;;4.75;1.20;;;;;;;15.92;22.17;98269.63;5104363;28;20024;-64
2021/04/06 08:37:19;;;;;;;3.35;1.20;;;;;;;15.69;22.20;98267.56;5104304;28;20012;-65
2021/04/06 08:39:45;;;;;;;9.13;1.73;;;;;;;15.62;22.15;98268.91;5103942;28;20028;-64
2021/04/06 08:42:15;;;;;;;7.43;1.52;;;;;;;15.32;22.02;98255.06;5104078;28;20403;-64
2021/04/06 08:44:42;;;;;;;4.13;1.00;;;;;;;14.65;22.79;98268.69;5104409;28;20028;-64
2021/04/06 08:47:07;;;;;;;5.88;0.82;;;;;;;14.52;23.48;98277.25;5104044;28;20027;-64
2021/04/06 08:49:41;;;;;;;4.65;1.30;;;;;;;14.78;23.20;98268.78;5104129;28;20020;-64
2021/04/06 08:52:13;;;;;;;3.90;0.93;;;;;;;14.63;22.99;98279.22;5103912;28;20016;-65
2021/04/06 08:54:39;;;;;;;3.08;1.15;;;;;;;14.46;23.21;98275.00;5103764;28;20039;-64
2021/04/06 08:57:07;;;;;;;2.63;1.00;;;;;;;14.68;23.48;98281.56;5103993;28;20031;-64
2021/04/06 08:59:42;;;;;;;3.22;1.00;;;;;;;15.16;22.74;98288.31;5104060;28;20575;-64
2021/04/06 09:02:10;;;;;;;5.25;0.80;;;;;;;15.41;21.93;98273.72;5103911;28;20054;-63
2021/04/06 09:04:40;;;;;;;3.45;1.02;;;;;;;15.43;21.65;98279.69;5104025;28;20016;-64
2021/04/06 09:07:23;;;;;;;6.70;1.20;;;;;;;15.47;21.98;98283.78;5103991;28;20024;-64
2021/04/06 09:09:53;;;;;;;4.82;1.38;;;;;;;15.80;21.57;98284.38;5103539;28;20025;-63
2021/04/06 09:12:18;;;;;;;5.78;1.13;;;;;;;16.03;21.33;98287.28;5103885;28;20027;-64
2021/04/06 09:14:44;;;;;;;5.10;0.88;;;;;;;16.12;20.87;98285.84;5103801;28;20063;-64
2021/04/06 09:17:10;;;;;;;5.55;1.15;;;;;;;16.22;20.51;98285.16;5103634;28;20057;-64
2021/04/06 09:19:37;;;;;;;7.20;1.50;;;;;;;16.49;21.09;98278.16;5085222;28;20024;-64
2021/04/06 09:22:06;;;;;;;4.78;0.80;;;;;;;17.20;20.29;98282.16;5103564;28;20024;-64
2021/04/06 09:24:32;;;;;;;3.92;0.95;;;;;;;17.83;19.55;98281.19;5103378;28;20403;-63
2021/04/06 09:26:59;;;;;;;4.28;1.10;;;;;;;18.30;19.18;98272.59;5106365;28;20019;-64
2021/04/06 09:29:36;;;;;;;5.72;1.00;;;;;;;18.92;18.80;98269.69;5086764;28;20070;-65
2021/04/06 09:32:05;;;;;;;2.38;0.80;;;;;;;19.46;18.28;98283.06;5108054;28;20020;-64
2021/04/06 09:34:34;;;;;;;3.70;1.00;;;;;;;19.89;17.30;98288.47;5107772;28;20020;-65
2021/04/06 09:37:32;;;;;;;3.33;0.90;;;;;;;19.99;17.12;98284.09;5107409;28;20024;-63
2021/04/06 09:39:58;;;;;;;3.28;0.70;;;;;;;19.88;17.28;98289.41;5062314;28;20040;-64
2021/04/06 09:42:23;;;;;;;5.38;0.93;;;;;;;20.24;16.98;98282.09;5107640;28;20027;-64
2021/04/06 09:44:51;;;;;;;5.65;0.70;;;;;;;20.27;16.85;98287.13;5107586;28;20089;-65
2021/04/06 09:47:19;;;;;;;6.55;0.90;;;;;;;20.17;16.34;98292.34;5107350;28;20035;-65
2021/04/06 09:49:51;;;;;;;2.90;0.60;;;;;;;19.62;16.62;98293.19;5107597;28;20020;-64
2021/04/06 09:52:20;;;;;;;2.65;0.90;;;;;;;19.37;16.92;98289.91;5107540;28;20035;-64
2021/04/06 09:54:56;;;;;;;2.83;0.80;;;;;;;19.24;17.15;98286.56;5088737;28;20110;-63
2021/04/06 09:57:34;;;;;;;4.07;1.00;;;;;;;19.27;16.55;98286.31;5107204;28;20171;-64
2021/04/06 10:00:00;;;;;;;4.13;1.00;;;;;;;19.20;16.95;98288.59;5107270;28;20083;-63
2021/04/06 10:02:28;;;;;;;4.55;0.93;;;;;;;19.62;17.00;98282.66;5107429;28;20069;-64
2021/04/06 10:04:54;;;;;;;4.70;0.75;;;;;;;19.96;16.97;98288.78;5107528;28;20107;-64
2021/04/06 10:07:27;;;;;;;3.03;0.90;;;;;;;20.26;16.72;98281.97;5107473;28;20020;-64
2021/04/06 10:10:04;;;;;;;5.10;1.08;;;;;;;20.19;16.58;98289.56;5106808;28;20035;-65
2021/04/06 10:12:32;;;;;;;2.83;0.90;;;;;;;20.13;16.69;98296.16;5107074;28;20024;-64
2021/04/06 10:14:58;;;;;;;5.78;0.73;;;;;;;19.66;16.46;98284.09;5106955;28;20077;-64
2021/04/06 10:17:35;;;;;;;3.35;1.20;;;;;;;18.71;16.92;98278.28;5106845;28;20129;-64
2021/04/06 10:20:07;;;;;;;2.97;0.90;;;;;;;18.30;17.45;98283.94;5106724;28;20032;-64
2021/04/06 10:22:42;;;;;;;5.85;0.82;;;;;;;18.18;18.13;98276.94;5107094;28;20024;-64
2021/04/06 10:25:09;;;;;;;6.15;1.00;;;;;;;18.23;18.05;98279.25;5106519;28;20055;-63
2021/04/06 10:27:41;;;;;;;7.72;2.28;;;;;;;18.34;18.25;98287.16;5106496;28;20032;-63
2021/04/06 10:30:17;;;;;;;2.63;0.80;;;;;;;18.82;18.13;98282.69;5106631;28;20093;-64
2021/04/06 10:32:48;;;;;;;3.53;0.93;;;;;;;19.28;17.70;98285.38;5106501;28;20021;-64
2021/04/06 10:35:23;;;;;;;2.20;1.02;;;;;;;19.62;17.60;98282.66;5106831;28;20349;-64
2021/04/06 10:37:52;;;;;;;8.13;0.93;;;;;;;19.71;16.77;98291.63;5105103;28;20028;-64
2021/04/06 10:40:21;;;;;;;5.20;1.10;;;;;;;19.16;17.62;98284.53;5106206;28;20027;-63
2021/04/06 10:42:52;;;;;;;7.85;0.70;;;;;;;19.16;18.04;98289.78;5106324;28;20031;-63
2021/04/06 10:45:19;;;;;;;2.92;0.70;;;;;;;19.23;16.80;98300.66;5106308;28;20031;-64
2021/04/06 10:47:45;;;;;;;5.80;0.90;;;;;;;18.74;17.60;98299.06;5106285;28;20028;-64
2021/04/06 10:50:11;;;;;;;3.70;0.80;;;;;;;18.66;17.87;98299.66;5106515;28;20153;-64
2021/04/06 10:52:36;;;;;;;2.83;0.63;;;;;;;18.68;18.01;98310.03;5106289;28;20024;-64
2021/04/06 10:55:05;;;;;;;4.55;1.10;;;;;;;18.54;17.86;98306.69;5105841;28;20016;-63
2021/04/06 10:57:37;;;;;;;2.42;0.80;;;;;;;18.29;17.37;98305.88;5106114;28;20020;-64
2021/04/06 11:00:23;;;;;;;7.22;1.00;;;;;;;17.33;18.73;98293.44;5087684;28;20028;-64
2021/04/06 11:03:13;;;;;;;4.93;0.93;;;;;;;16.57;19.96;98302.06;5106097;28;20020;-64
2021/04/06 11:05:39;;;;;;;3.28;0.70;;;;;;;16.36;19.93;98293.84;5106025;28;20087;-64
2021/04/06 11:08:25;;;;;;;4.50;0.70;;;;;;;15.93;20.85;98307.94;5105837;28;20020;-64
2021/04/06 11:10:55;;;;;;;3.72;0.80;;;;;;;16.00;21.31;98297.94;5087350;28;20012;-63
2021/04/06 11:13:23;;;;;;;6.60;0.93;;;;;;;16.98;20.33;98296.72;5105793;28;20020;-63
2021/04/06 11:15:49;;;;;;;3.28;0.90;;;;;;;17.51;19.98;98300.13;5105625;28;20016;-63
2021/04/06 11:18:15;;;;;;;4.72;0.73;;;;;;;17.76;18.74;98303.59;5105750;28;20566;-64
2021/04/06 11:20:41;;;;;;;5.45;0.98;;;;;;;17.43;18.82;98309.34;5105529;28;20067;-64
2021/04/06 11:23:07;;;;;;;3.45;0.80;;;;;;;17.05;19.29;98320.72;5105558;28;20040;-63
2021/04/06 11:25:33;;;;;;;4.00;0.70;;;;;;;16.92;19.54;98325.94;5105423;28;20026;-64
2021/04/06 11:28:01;;;;;;;4.78;0.85;;;;;;;16.32;19.58;98324.66;5105262;28;20048;-64
2021/04/06 11:30:35;;;;;;;2.88;0.98;;;;;;;14.86;21.12;98332.72;5105243;28;20016;-64
2021/04/06 11:33:04;;;;;;;4.45;0.90;;;;;;;13.39;22.37;98335.63;5105448;28;20414;-64
2021/04/06 11:35:30;;;;;;;1.60;0.60;;;;;;;12.17;23.90;98343.47;5105181;28;20026;-64
2021/04/06 11:37:56;;;;;;;2.92;0.90;;;;;;;11.27;24.91;98335.41;5105249;28;20035;-63
2021/04/06 11:40:23;;;;;;;4.88;0.90;;;;;;;10.57;26.08;98346.19;5105089;28;20024;-63
2021/04/06 11:42:48;;;;;;;2.58;0.70;;;;;;;10.01;27.42;98331.94;5105220;28;20053;-63
2021/04/06 11:45:14;;;;;;;3.13;0.68;;;;;;;9.67;27.92;98333.25;5105290;28;20056;-63
2021/04/06 11:47:40;;;;;;;4.00;1.23;;;;;;;9.33;28.86;98331.94;5105013;28;20121;-64
2021/04/06 11:50:07;;;;;;;3.75;1.00;;;;;;;8.98;29.53;98334.91;5104679;28;20028;-64
2021/04/06 11:52:34;;;;;;;3.67;0.73;;;;;;;8.80;29.58;98330.28;5105192;28;20028;-64
2021/04/06 11:55:02;;;;;;;4.30;0.93;;;;;;;8.63;29.95;98336.03;5104822;28;20046;-63